sensor_id;sensor_type;location;lat;lon;timestamp;P1;durP1;ratioP1;P2;durP2;ratioP2
6735;SDS011;3405;50.576;12.364;2023-03-25T00:02:18;3.83;;;2.05;;
6735;SDS011;3405;50.576;12.364;2023-03-25T00:04:44;3.40;;;1.90;;
6735;SDS011;3405;50.576;12.364;2023-03-25T00:07:14;3.70;;;1.92;;
6735;SDS011;3405;50.576;12.364;2023-03-25T00:09:42;4.07;;;2.00;;
6735;SDS011;3405;50.576;12.364;2023-03-25T00:12:08;2.85;;;2.00;;
6735;SDS011;3405;50.576;12.364;2023-03-25T00:14:34;3.72;;;2.10;;
6735;SDS011;3405;50.576;12.364;2023-03-25T00:17:00;5.80;;;2.00;;
6735;SDS011;3405;50.576;12.364;2023-03-25T00:19:26;3.40;;;1.98;;
6735;SDS011;3405;50.576;12.364;2023-03-25T00:21:52;4.03;;;2.20;;
6735;SDS011;3405;50.576;12.364;2023-03-25T00:24:18;2.53;;;1.73;;
6735;SDS011;3405;50.576;12.364;2023-03-25T00:26:44;3.80;;;2.35;;
6735;SDS011;3405;50.576;12.364;2023-03-25T00:29:12;4.20;;;1.75;;
6735;SDS011;3405;50.576;12.364;2023-03-25T00:31:38;3.33;;;1.92;;
6735;SDS011;3405;50.576;12.364;2023-03-25T00:34:04;4.13;;;2.20;;
6735;SDS011;3405;50.576;12.364;2023-03-25T00:36:30;4.00;;;2.25;;
6735;SDS011;3405;50.576;12.364;2023-03-25T00:38:56;3.08;;;2.03;;
6735;SDS011;3405;50.576;12.364;2023-03-25T00:41:23;4.18;;;1.90;;
6735;SDS011;3405;50.576;12.364;2023-03-25T00:43:56;3.15;;;1.92;;
6735;SDS011;3405;50.576;12.364;2023-03-25T00:46:23;2.17;;;1.90;;
6735;SDS011;3405;50.576;12.364;2023-03-25T00:48:51;3.40;;;1.80;;
6735;SDS011;3405;50.576;12.364;2023-03-25T00:51:17;3.58;;;1.98;;
6735;SDS011;3405;50.576;12.364;2023-03-25T00:53:45;3.50;;;2.03;;
6735;SDS011;3405;50.576;12.364;2023-03-25T00:56:11;5.28;;;2.00;;
6735;SDS011;3405;50.576;12.364;2023-03-25T00:58:38;3.85;;;1.98;;
6735;SDS011;3405;50.576;12.364;2023-03-25T01:01:10;2.40;;;1.80;;
6735;SDS011;3405;50.576;12.364;2023-03-25T01:03:37;2.53;;;1.67;;
6735;SDS011;3405;50.576;12.364;2023-03-25T01:06:03;4.25;;;1.92;;
6735;SDS011;3405;50.576;12.364;2023-03-25T01:08:33;3.90;;;1.60;;
6735;SDS011;3405;50.576;12.364;2023-03-25T01:10:59;2.40;;;1.67;;
6735;SDS011;3405;50.576;12.364;2023-03-25T01:13:25;2.83;;;1.80;;
6735;SDS011;3405;50.576;12.364;2023-03-25T01:15:51;2.90;;;1.70;;
6735;SDS011;3405;50.576;12.364;2023-03-25T01:18:17;2.67;;;1.80;;
6735;SDS011;3405;50.576;12.364;2023-03-25T01:20:43;3.25;;;1.42;;
6735;SDS011;3405;50.576;12.364;2023-03-25T01:23:09;3.45;;;1.63;;
6735;SDS011;3405;50.576;12.364;2023-03-25T01:25:35;2.97;;;1.30;;
6735;SDS011;3405;50.576;12.364;2023-03-25T01:28:02;1.98;;;1.27;;
6735;SDS011;3405;50.576;12.364;2023-03-25T01:30:28;2.45;;;1.42;;
6735;SDS011;3405;50.576;12.364;2023-03-25T01:32:54;2.20;;;1.20;;
6735;SDS011;3405;50.576;12.364;2023-03-25T01:35:20;2.15;;;1.08;;
6735;SDS011;3405;50.576;12.364;2023-03-25T01:37:46;1.95;;;0.95;;
6735;SDS011;3405;50.576;12.364;2023-03-25T01:40:16;1.15;;;0.68;;
6735;SDS011;3405;50.576;12.364;2023-03-25T01:42:42;2.42;;;1.27;;
6735;SDS011;3405;50.576;12.364;2023-03-25T01:45:13;1.77;;;0.82;;
6735;SDS011;3405;50.576;12.364;2023-03-25T01:47:39;2.47;;;1.00;;
6735;SDS011;3405;50.576;12.364;2023-03-25T01:50:05;1.35;;;0.77;;
6735;SDS011;3405;50.576;12.364;2023-03-25T01:52:32;2.22;;;0.82;;
6735;SDS011;3405;50.576;12.364;2023-03-25T01:54:58;0.82;;;0.70;;
6735;SDS011;3405;50.576;12.364;2023-03-25T01:57:24;2.40;;;0.90;;
6735;SDS011;3405;50.576;12.364;2023-03-25T01:59:51;1.67;;;0.70;;
6735;SDS011;3405;50.576;12.364;2023-03-25T02:02:18;1.20;;;0.70;;
6735;SDS011;3405;50.576;12.364;2023-03-25T02:04:50;2.33;;;0.80;;
6735;SDS011;3405;50.576;12.364;2023-03-25T02:07:23;1.45;;;0.80;;
6735;SDS011;3405;50.576;12.364;2023-03-25T02:09:58;3.90;;;1.00;;
6735;SDS011;3405;50.576;12.364;2023-03-25T02:12:26;1.60;;;0.80;;
6735;SDS011;3405;50.576;12.364;2023-03-25T02:14:51;0.50;;;0.40;;
6735;SDS011;3405;50.576;12.364;2023-03-25T02:17:25;2.80;;;1.05;;
6735;SDS011;3405;50.576;12.364;2023-03-25T02:25:27;1.20;;;0.55;;
6735;SDS011;3405;50.576;12.364;2023-03-25T02:28:06;0.90;;;0.55;;
6735;SDS011;3405;50.576;12.364;2023-03-25T02:41:23;0.88;;;0.75;;
6735;SDS011;3405;50.576;12.364;2023-03-25T02:46:48;1.38;;;0.60;;
6735;SDS011;3405;50.576;12.364;2023-03-25T02:49:17;1.83;;;0.70;;
6735;SDS011;3405;50.576;12.364;2023-03-25T02:51:45;1.15;;;0.57;;
6735;SDS011;3405;50.576;12.364;2023-03-25T02:54:13;1.58;;;0.80;;
6735;SDS011;3405;50.576;12.364;2023-03-25T02:56:40;4.43;;;0.80;;
6735;SDS011;3405;50.576;12.364;2023-03-25T02:59:08;1.70;;;0.90;;
6735;SDS011;3405;50.576;12.364;2023-03-25T03:01:38;1.10;;;0.80;;
6735;SDS011;3405;50.576;12.364;2023-03-25T03:04:04;1.33;;;0.60;;
6735;SDS011;3405;50.576;12.364;2023-03-25T03:06:30;1.75;;;0.80;;
6735;SDS011;3405;50.576;12.364;2023-03-25T03:09:10;0.52;;;0.45;;
6735;SDS011;3405;50.576;12.364;2023-03-25T03:12:17;0.95;;;0.50;;
6735;SDS011;3405;50.576;12.364;2023-03-25T03:17:18;0.88;;;0.47;;
6735;SDS011;3405;50.576;12.364;2023-03-25T03:19:57;0.88;;;0.52;;
6735;SDS011;3405;50.576;12.364;2023-03-25T03:22:36;2.00;;;0.50;;
6735;SDS011;3405;50.576;12.364;2023-03-25T03:25:09;1.45;;;0.60;;
6735;SDS011;3405;50.576;12.364;2023-03-25T03:27:42;0.77;;;0.70;;
6735;SDS011;3405;50.576;12.364;2023-03-25T03:30:16;1.30;;;0.50;;
6735;SDS011;3405;50.576;12.364;2023-03-25T03:35:21;1.45;;;0.40;;
6735;SDS011;3405;50.576;12.364;2023-03-25T03:37:56;0.85;;;0.40;;
6735;SDS011;3405;50.576;12.364;2023-03-25T03:40:22;0.95;;;0.50;;
6735;SDS011;3405;50.576;12.364;2023-03-25T03:42:51;0.88;;;0.40;;
6735;SDS011;3405;50.576;12.364;2023-03-25T03:45:28;0.68;;;0.40;;
6735;SDS011;3405;50.576;12.364;2023-03-25T03:47:55;1.58;;;0.80;;
6735;SDS011;3405;50.576;12.364;2023-03-25T03:50:23;1.05;;;0.70;;
6735;SDS011;3405;50.576;12.364;2023-03-25T03:52:53;1.17;;;0.30;;
6735;SDS011;3405;50.576;12.364;2023-03-25T03:55:25;1.30;;;0.68;;
6735;SDS011;3405;50.576;12.364;2023-03-25T03:57:54;1.27;;;0.45;;
6735;SDS011;3405;50.576;12.364;2023-03-25T04:00:24;1.42;;;0.40;;
6735;SDS011;3405;50.576;12.364;2023-03-25T04:03:07;0.80;;;0.40;;
6735;SDS011;3405;50.576;12.364;2023-03-25T04:05:38;0.68;;;0.50;;
6735;SDS011;3405;50.576;12.364;2023-03-25T04:08:18;0.80;;;0.70;;
6735;SDS011;3405;50.576;12.364;2023-03-25T04:10:48;0.60;;;0.50;;
6735;SDS011;3405;50.576;12.364;2023-03-25T04:13:17;0.80;;;0.50;;
6735;SDS011;3405;50.576;12.364;2023-03-25T04:15:44;0.40;;;0.40;;
6735;SDS011;3405;50.576;12.364;2023-03-25T04:18:10;1.40;;;0.40;;
6735;SDS011;3405;50.576;12.364;2023-03-25T04:20:36;0.38;;;0.38;;
6735;SDS011;3405;50.576;12.364;2023-03-25T04:23:09;0.50;;;0.50;;
6735;SDS011;3405;50.576;12.364;2023-03-25T04:25:39;0.68;;;0.40;;
6735;SDS011;3405;50.576;12.364;2023-03-25T04:28:06;0.73;;;0.50;;
6735;SDS011;3405;50.576;12.364;2023-03-25T04:30:31;1.77;;;0.63;;
6735;SDS011;3405;50.576;12.364;2023-03-25T04:32:57;0.82;;;0.60;;
6735;SDS011;3405;50.576;12.364;2023-03-25T04:35:24;1.15;;;0.55;;
6735;SDS011;3405;50.576;12.364;2023-03-25T04:37:50;1.63;;;0.63;;
6735;SDS011;3405;50.576;12.364;2023-03-25T04:40:21;1.67;;;0.50;;
6735;SDS011;3405;50.576;12.364;2023-03-25T04:42:49;2.05;;;0.50;;
6735;SDS011;3405;50.576;12.364;2023-03-25T04:45:17;3.70;;;0.47;;
6735;SDS011;3405;50.576;12.364;2023-03-25T04:47:43;1.10;;;0.60;;
6735;SDS011;3405;50.576;12.364;2023-03-25T04:50:18;0.93;;;0.75;;
6735;SDS011;3405;50.576;12.364;2023-03-25T04:52:44;0.73;;;0.73;;
6735;SDS011;3405;50.576;12.364;2023-03-25T04:55:11;1.45;;;0.60;;
6735;SDS011;3405;50.576;12.364;2023-03-25T04:57:41;1.80;;;0.45;;
6735;SDS011;3405;50.576;12.364;2023-03-25T05:00:07;1.45;;;0.60;;
6735;SDS011;3405;50.576;12.364;2023-03-25T05:02:34;1.13;;;0.45;;
6735;SDS011;3405;50.576;12.364;2023-03-25T05:05:00;0.50;;;0.50;;
6735;SDS011;3405;50.576;12.364;2023-03-25T05:07:26;1.83;;;0.68;;
6735;SDS011;3405;50.576;12.364;2023-03-25T05:09:53;1.08;;;0.52;;
6735;SDS011;3405;50.576;12.364;2023-03-25T05:12:21;1.23;;;0.73;;
6735;SDS011;3405;50.576;12.364;2023-03-25T05:14:47;2.47;;;0.60;;
6735;SDS011;3405;50.576;12.364;2023-03-25T05:17:12;1.92;;;0.60;;
6735;SDS011;3405;50.576;12.364;2023-03-25T05:19:38;1.10;;;0.47;;
6735;SDS011;3405;50.576;12.364;2023-03-25T05:22:07;1.30;;;0.68;;
6735;SDS011;3405;50.576;12.364;2023-03-25T05:24:33;1.25;;;0.60;;
6735;SDS011;3405;50.576;12.364;2023-03-25T05:27:01;1.10;;;0.40;;
6735;SDS011;3405;50.576;12.364;2023-03-25T05:29:27;2.17;;;0.70;;
6735;SDS011;3405;50.576;12.364;2023-03-25T05:31:57;0.60;;;0.40;;
6735;SDS011;3405;50.576;12.364;2023-03-25T05:34:23;1.85;;;0.60;;
6735;SDS011;3405;50.576;12.364;2023-03-25T05:36:49;1.00;;;0.60;;
6735;SDS011;3405;50.576;12.364;2023-03-25T05:39:15;1.10;;;0.60;;
6735;SDS011;3405;50.576;12.364;2023-03-25T05:41:42;1.10;;;0.63;;
6735;SDS011;3405;50.576;12.364;2023-03-25T05:44:09;1.10;;;0.60;;
6735;SDS011;3405;50.576;12.364;2023-03-25T05:46:39;1.55;;;0.80;;
6735;SDS011;3405;50.576;12.364;2023-03-25T05:49:04;1.10;;;0.57;;
6735;SDS011;3405;50.576;12.364;2023-03-25T05:51:32;3.22;;;0.70;;
6735;SDS011;3405;50.576;12.364;2023-03-25T05:54:01;1.33;;;0.57;;
6735;SDS011;3405;50.576;12.364;2023-03-25T05:56:27;1.77;;;0.68;;
6735;SDS011;3405;50.576;12.364;2023-03-25T05:58:53;2.05;;;0.73;;
6735;SDS011;3405;50.576;12.364;2023-03-25T06:01:20;4.28;;;1.52;;
6735;SDS011;3405;50.576;12.364;2023-03-25T06:03:46;14.73;;;3.38;;
6735;SDS011;3405;50.576;12.364;2023-03-25T06:06:13;17.25;;;3.90;;
6735;SDS011;3405;50.576;12.364;2023-03-25T06:08:43;11.00;;;2.40;;
6735;SDS011;3405;50.576;12.364;2023-03-25T06:11:09;11.57;;;2.70;;
6735;SDS011;3405;50.576;12.364;2023-03-25T06:13:37;14.35;;;3.20;;
6735;SDS011;3405;50.576;12.364;2023-03-25T06:16:04;7.93;;;3.00;;
6735;SDS011;3405;50.576;12.364;2023-03-25T06:18:31;19.77;;;2.95;;
6735;SDS011;3405;50.576;12.364;2023-03-25T06:20:57;12.40;;;2.28;;
6735;SDS011;3405;50.576;12.364;2023-03-25T06:23:23;10.38;;;3.00;;
6735;SDS011;3405;50.576;12.364;2023-03-25T06:25:50;5.55;;;1.77;;
6735;SDS011;3405;50.576;12.364;2023-03-25T06:28:16;11.80;;;2.05;;
6735;SDS011;3405;50.576;12.364;2023-03-25T06:30:46;9.70;;;2.17;;
6735;SDS011;3405;50.576;12.364;2023-03-25T06:33:13;8.52;;;2.38;;
6735;SDS011;3405;50.576;12.364;2023-03-25T06:35:42;7.75;;;1.92;;
6735;SDS011;3405;50.576;12.364;2023-03-25T06:38:08;7.15;;;1.63;;
6735;SDS011;3405;50.576;12.364;2023-03-25T06:40:35;8.30;;;1.65;;
6735;SDS011;3405;50.576;12.364;2023-03-25T06:43:02;5.53;;;2.03;;
6735;SDS011;3405;50.576;12.364;2023-03-25T06:45:28;8.85;;;1.92;;
6735;SDS011;3405;50.576;12.364;2023-03-25T06:47:54;5.05;;;1.60;;
6735;SDS011;3405;50.576;12.364;2023-03-25T06:50:20;4.03;;;1.38;;
6735;SDS011;3405;50.576;12.364;2023-03-25T06:52:46;6.45;;;1.20;;
6735;SDS011;3405;50.576;12.364;2023-03-25T06:55:11;2.20;;;1.27;;
6735;SDS011;3405;50.576;12.364;2023-03-25T06:57:37;3.75;;;1.17;;
6735;SDS011;3405;50.576;12.364;2023-03-25T07:00:04;4.78;;;1.17;;
6735;SDS011;3405;50.576;12.364;2023-03-25T07:02:30;4.50;;;1.30;;
6735;SDS011;3405;50.576;12.364;2023-03-25T07:04:56;2.92;;;1.40;;
6735;SDS011;3405;50.576;12.364;2023-03-25T07:07:22;4.97;;;1.15;;
6735;SDS011;3405;50.576;12.364;2023-03-25T07:09:51;3.03;;;1.30;;
6735;SDS011;3405;50.576;12.364;2023-03-25T07:12:19;4.45;;;1.30;;
6735;SDS011;3405;50.576;12.364;2023-03-25T07:14:51;4.20;;;1.50;;
6735;SDS011;3405;50.576;12.364;2023-03-25T07:17:17;3.03;;;1.30;;
6735;SDS011;3405;50.576;12.364;2023-03-25T07:19:44;5.25;;;1.23;;
6735;SDS011;3405;50.576;12.364;2023-03-25T07:22:10;2.90;;;1.50;;
6735;SDS011;3405;50.576;12.364;2023-03-25T07:24:36;3.03;;;0.82;;
6735;SDS011;3405;50.576;12.364;2023-03-25T07:27:02;2.72;;;0.93;;
6735;SDS011;3405;50.576;12.364;2023-03-25T07:29:28;2.03;;;0.85;;
6735;SDS011;3405;50.576;12.364;2023-03-25T07:31:53;2.00;;;1.15;;
6735;SDS011;3405;50.576;12.364;2023-03-25T07:34:19;3.03;;;0.90;;
6735;SDS011;3405;50.576;12.364;2023-03-25T07:36:45;1.48;;;0.73;;
6735;SDS011;3405;50.576;12.364;2023-03-25T07:39:11;3.83;;;1.10;;
6735;SDS011;3405;50.576;12.364;2023-03-25T07:41:37;4.40;;;1.27;;
6735;SDS011;3405;50.576;12.364;2023-03-25T07:44:03;3.75;;;0.90;;
6735;SDS011;3405;50.576;12.364;2023-03-25T07:46:29;1.38;;;0.70;;
6735;SDS011;3405;50.576;12.364;2023-03-25T07:48:55;2.40;;;0.90;;
6735;SDS011;3405;50.576;12.364;2023-03-25T07:51:21;2.08;;;0.70;;
6735;SDS011;3405;50.576;12.364;2023-03-25T07:53:47;1.58;;;0.70;;
6735;SDS011;3405;50.576;12.364;2023-03-25T07:56:13;0.63;;;0.60;;
6735;SDS011;3405;50.576;12.364;2023-03-25T07:58:40;1.73;;;1.00;;
6735;SDS011;3405;50.576;12.364;2023-03-25T08:01:06;1.33;;;0.70;;
6735;SDS011;3405;50.576;12.364;2023-03-25T08:03:32;0.88;;;0.60;;
6735;SDS011;3405;50.576;12.364;2023-03-25T08:05:59;2.65;;;0.82;;
6735;SDS011;3405;50.576;12.364;2023-03-25T08:08:26;2.00;;;0.60;;
6735;SDS011;3405;50.576;12.364;2023-03-25T08:10:54;2.65;;;0.80;;
6735;SDS011;3405;50.576;12.364;2023-03-25T08:13:20;1.73;;;0.70;;
6735;SDS011;3405;50.576;12.364;2023-03-25T08:15:46;0.95;;;0.63;;
6735;SDS011;3405;50.576;12.364;2023-03-25T08:18:12;1.23;;;0.68;;
6735;SDS011;3405;50.576;12.364;2023-03-25T08:20:38;1.50;;;0.70;;
6735;SDS011;3405;50.576;12.364;2023-03-25T08:23:05;0.75;;;0.60;;
6735;SDS011;3405;50.576;12.364;2023-03-25T08:25:35;0.98;;;0.60;;
6735;SDS011;3405;50.576;12.364;2023-03-25T08:28:01;2.22;;;0.68;;
6735;SDS011;3405;50.576;12.364;2023-03-25T08:30:27;1.08;;;0.70;;
6735;SDS011;3405;50.576;12.364;2023-03-25T08:32:53;1.80;;;0.60;;
6735;SDS011;3405;50.576;12.364;2023-03-25T08:35:20;1.00;;;0.77;;
6735;SDS011;3405;50.576;12.364;2023-03-25T08:37:46;1.17;;;0.47;;
6735;SDS011;3405;50.576;12.364;2023-03-25T08:40:12;0.93;;;0.70;;
6735;SDS011;3405;50.576;12.364;2023-03-25T08:42:40;1.50;;;0.70;;
6735;SDS011;3405;50.576;12.364;2023-03-25T08:45:07;0.65;;;0.55;;
6735;SDS011;3405;50.576;12.364;2023-03-25T08:47:33;1.40;;;0.73;;
6735;SDS011;3405;50.576;12.364;2023-03-25T08:49:59;1.67;;;0.60;;
6735;SDS011;3405;50.576;12.364;2023-03-25T08:52:25;0.40;;;0.40;;
6735;SDS011;3405;50.576;12.364;2023-03-25T08:54:51;1.38;;;0.50;;
6735;SDS011;3405;50.576;12.364;2023-03-25T08:57:17;0.85;;;0.40;;
6735;SDS011;3405;50.576;12.364;2023-03-25T08:59:43;0.93;;;0.40;;
6735;SDS011;3405;50.576;12.364;2023-03-25T09:02:10;1.10;;;0.63;;
6735;SDS011;3405;50.576;12.364;2023-03-25T09:04:36;0.40;;;0.40;;
6735;SDS011;3405;50.576;12.364;2023-03-25T09:07:03;1.00;;;0.80;;
6735;SDS011;3405;50.576;12.364;2023-03-25T09:09:29;0.90;;;0.40;;
6735;SDS011;3405;50.576;12.364;2023-03-25T09:11:55;0.68;;;0.50;;
6735;SDS011;3405;50.576;12.364;2023-03-25T09:14:21;0.77;;;0.40;;
6735;SDS011;3405;50.576;12.364;2023-03-25T09:16:47;2.30;;;0.55;;
6735;SDS011;3405;50.576;12.364;2023-03-25T09:19:13;2.17;;;0.70;;
6735;SDS011;3405;50.576;12.364;2023-03-25T09:21:39;0.70;;;0.43;;
6735;SDS011;3405;50.576;12.364;2023-03-25T09:24:06;1.45;;;0.80;;
6735;SDS011;3405;50.576;12.364;2023-03-25T09:26:32;1.20;;;0.40;;
6735;SDS011;3405;50.576;12.364;2023-03-25T09:28:58;1.38;;;0.63;;
6735;SDS011;3405;50.576;12.364;2023-03-25T09:31:24;0.55;;;0.40;;
6735;SDS011;3405;50.576;12.364;2023-03-25T09:33:51;1.38;;;0.60;;
6735;SDS011;3405;50.576;12.364;2023-03-25T09:36:17;0.93;;;0.63;;
6735;SDS011;3405;50.576;12.364;2023-03-25T09:38:45;0.65;;;0.43;;
6735;SDS011;3405;50.576;12.364;2023-03-25T09:46:49;0.95;;;0.35;;
6735;SDS011;3405;50.576;12.364;2023-03-25T09:49:17;0.43;;;0.35;;
6735;SDS011;3405;50.576;12.364;2023-03-25T09:51:45;0.57;;;0.50;;
6735;SDS011;3405;50.576;12.364;2023-03-25T09:56:41;0.68;;;0.50;;
6735;SDS011;3405;50.576;12.364;2023-03-25T09:59:18;0.93;;;0.52;;
6735;SDS011;3405;50.576;12.364;2023-03-25T10:01:51;0.70;;;0.40;;
6735;SDS011;3405;50.576;12.364;2023-03-25T10:10:36;0.50;;;0.50;;
6735;SDS011;3405;50.576;12.364;2023-03-25T10:17:37;0.73;;;0.40;;
6735;SDS011;3405;50.576;12.364;2023-03-25T10:20:15;0.63;;;0.50;;
6735;SDS011;3405;50.576;12.364;2023-03-25T10:25:26;0.93;;;0.40;;
6735;SDS011;3405;50.576;12.364;2023-03-25T10:27:53;0.60;;;0.38;;
6735;SDS011;3405;50.576;12.364;2023-03-25T10:30:22;0.52;;;0.40;;
6735;SDS011;3405;50.576;12.364;2023-03-25T10:35:28;0.32;;;0.32;;
6735;SDS011;3405;50.576;12.364;2023-03-25T10:37:57;0.30;;;0.25;;
6735;SDS011;3405;50.576;12.364;2023-03-25T10:40:26;0.40;;;0.30;;
6735;SDS011;3405;50.576;12.364;2023-03-25T10:42:57;1.33;;;0.68;;
6735;SDS011;3405;50.576;12.364;2023-03-25T10:45:24;0.50;;;0.40;;
6735;SDS011;3405;50.576;12.364;2023-03-25T10:47:52;0.60;;;0.30;;
6735;SDS011;3405;50.576;12.364;2023-03-25T10:50:19;0.95;;;0.50;;
6735;SDS011;3405;50.576;12.364;2023-03-25T10:52:46;0.55;;;0.55;;
6735;SDS011;3405;50.576;12.364;2023-03-25T10:55:20;0.68;;;0.40;;
6735;SDS011;3405;50.576;12.364;2023-03-25T10:57:47;0.40;;;0.30;;
6735;SDS011;3405;50.576;12.364;2023-03-25T11:00:14;0.63;;;0.32;;
6735;SDS011;3405;50.576;12.364;2023-03-25T11:02:42;1.45;;;0.50;;
6735;SDS011;3405;50.576;12.364;2023-03-25T11:05:08;0.20;;;0.20;;
6735;SDS011;3405;50.576;12.364;2023-03-25T11:07:41;0.32;;;0.32;;
6735;SDS011;3405;50.576;12.364;2023-03-25T11:10:18;0.43;;;0.32;;
6735;SDS011;3405;50.576;12.364;2023-03-25T11:12:44;0.35;;;0.35;;
6735;SDS011;3405;50.576;12.364;2023-03-25T11:15:16;0.47;;;0.40;;
6735;SDS011;3405;50.576;12.364;2023-03-25T11:17:43;0.60;;;0.47;;
6735;SDS011;3405;50.576;12.364;2023-03-25T11:20:20;0.50;;;0.40;;
6735;SDS011;3405;50.576;12.364;2023-03-25T11:22:47;0.50;;;0.50;;
6735;SDS011;3405;50.576;12.364;2023-03-25T11:25:24;0.38;;;0.32;;
6735;SDS011;3405;50.576;12.364;2023-03-25T11:27:52;0.60;;;0.40;;
6735;SDS011;3405;50.576;12.364;2023-03-25T11:30:20;0.40;;;0.40;;
6735;SDS011;3405;50.576;12.364;2023-03-25T11:35:42;0.82;;;0.50;;
6735;SDS011;3405;50.576;12.364;2023-03-25T11:38:15;0.20;;;0.20;;
6735;SDS011;3405;50.576;12.364;2023-03-25T11:40:54;0.45;;;0.30;;
6735;SDS011;3405;50.576;12.364;2023-03-25T11:43:21;1.77;;;0.50;;
6735;SDS011;3405;50.576;12.364;2023-03-25T11:45:48;0.80;;;0.50;;
6735;SDS011;3405;50.576;12.364;2023-03-25T11:48:18;0.60;;;0.50;;
6735;SDS011;3405;50.576;12.364;2023-03-25T11:50:49;0.50;;;0.38;;
6735;SDS011;3405;50.576;12.364;2023-03-25T11:53:19;0.93;;;0.50;;
6735;SDS011;3405;50.576;12.364;2023-03-25T11:55:46;0.65;;;0.38;;
6735;SDS011;3405;50.576;12.364;2023-03-25T11:58:14;0.90;;;0.70;;
6735;SDS011;3405;50.576;12.364;2023-03-25T12:00:41;0.82;;;0.50;;
6735;SDS011;3405;50.576;12.364;2023-03-25T12:05:37;0.75;;;0.40;;
6735;SDS011;3405;50.576;12.364;2023-03-25T12:08:13;0.85;;;0.50;;
6735;SDS011;3405;50.576;12.364;2023-03-25T12:13:23;0.73;;;0.50;;
6735;SDS011;3405;50.576;12.364;2023-03-25T12:15:54;1.02;;;0.50;;
6735;SDS011;3405;50.576;12.364;2023-03-25T12:18:40;0.50;;;0.30;;
6735;SDS011;3405;50.576;12.364;2023-03-25T12:23:52;0.68;;;0.45;;
6735;SDS011;3405;50.576;12.364;2023-03-25T12:26:35;1.48;;;0.57;;
6735;SDS011;3405;50.576;12.364;2023-03-25T12:34:08;9.30;;;1.33;;
6735;SDS011;3405;50.576;12.364;2023-03-25T12:37:19;2.78;;;0.88;;
6735;SDS011;3405;50.576;12.364;2023-03-25T12:39:39;6.70;;;1.20;;
6735;SDS011;3405;50.576;12.364;2023-03-25T12:42:16;4.85;;;0.90;;
6735;SDS011;3405;50.576;12.364;2023-03-25T12:47:17;5.13;;;0.98;;
6735;SDS011;3405;50.576;12.364;2023-03-25T12:49:53;4.43;;;0.80;;
6735;SDS011;3405;50.576;12.364;2023-03-25T12:52:28;3.47;;;0.90;;
6735;SDS011;3405;50.576;12.364;2023-03-25T13:00:18;4.75;;;0.90;;
6735;SDS011;3405;50.576;12.364;2023-03-25T13:03:01;6.15;;;1.38;;
6735;SDS011;3405;50.576;12.364;2023-03-25T13:07:59;5.50;;;1.30;;
6735;SDS011;3405;50.576;12.364;2023-03-25T13:10:27;6.30;;;1.63;;
6735;SDS011;3405;50.576;12.364;2023-03-25T13:12:59;6.95;;;1.80;;
6735;SDS011;3405;50.576;12.364;2023-03-25T13:15:27;3.03;;;1.13;;
6735;SDS011;3405;50.576;12.364;2023-03-25T13:17:56;7.97;;;1.80;;
6735;SDS011;3405;50.576;12.364;2023-03-25T13:20:25;3.50;;;1.10;;
6735;SDS011;3405;50.576;12.364;2023-03-25T13:22:54;2.78;;;1.20;;
6735;SDS011;3405;50.576;12.364;2023-03-25T13:25:26;6.30;;;1.60;;
6735;SDS011;3405;50.576;12.364;2023-03-25T13:27:54;6.38;;;1.40;;
6735;SDS011;3405;50.576;12.364;2023-03-25T13:30:26;6.18;;;1.50;;
6735;SDS011;3405;50.576;12.364;2023-03-25T13:32:53;8.20;;;1.63;;
6735;SDS011;3405;50.576;12.364;2023-03-25T13:35:28;1.88;;;1.38;;
6735;SDS011;3405;50.576;12.364;2023-03-25T13:38:00;6.03;;;1.48;;
6735;SDS011;3405;50.576;12.364;2023-03-25T13:40:35;5.57;;;1.20;;
6735;SDS011;3405;50.576;12.364;2023-03-25T13:45:45;3.95;;;1.30;;
6735;SDS011;3405;50.576;12.364;2023-03-25T13:48:22;5.47;;;1.13;;
6735;SDS011;3405;50.576;12.364;2023-03-25T13:50:52;1.77;;;1.00;;
6735;SDS011;3405;50.576;12.364;2023-03-25T13:55:47;9.80;;;1.27;;
6735;SDS011;3405;50.576;12.364;2023-03-25T14:03:30;2.83;;;0.90;;
6735;SDS011;3405;50.576;12.364;2023-03-25T14:06:10;1.23;;;0.77;;
6735;SDS011;3405;50.576;12.364;2023-03-25T14:09:02;1.08;;;0.60;;
6735;SDS011;3405;50.576;12.364;2023-03-25T14:11:32;1.45;;;0.95;;
6735;SDS011;3405;50.576;12.364;2023-03-25T14:14:02;4.05;;;0.90;;
6735;SDS011;3405;50.576;12.364;2023-03-25T14:16:31;3.03;;;0.80;;
6735;SDS011;3405;50.576;12.364;2023-03-25T14:19:00;3.72;;;0.90;;
6735;SDS011;3405;50.576;12.364;2023-03-25T14:24:04;2.90;;;1.25;;
6735;SDS011;3405;50.576;12.364;2023-03-25T14:26:32;5.70;;;1.27;;
6735;SDS011;3405;50.576;12.364;2023-03-25T14:29:02;3.08;;;1.27;;
6735;SDS011;3405;50.576;12.364;2023-03-25T14:31:31;2.35;;;1.00;;
6735;SDS011;3405;50.576;12.364;2023-03-25T14:36:30;6.70;;;1.80;;
6735;SDS011;3405;50.576;12.364;2023-03-25T14:39:10;3.17;;;1.40;;
6735;SDS011;3405;50.576;12.364;2023-03-25T14:44:21;5.80;;;1.52;;
6735;SDS011;3405;50.576;12.364;2023-03-25T14:46:58;3.10;;;1.35;;
6735;SDS011;3405;50.576;12.364;2023-03-25T14:49:26;4.75;;;1.80;;
6735;SDS011;3405;50.576;12.364;2023-03-25T14:52:11;3.97;;;1.20;;
6735;SDS011;3405;50.576;12.364;2023-03-25T14:54:39;4.82;;;1.50;;
6735;SDS011;3405;50.576;12.364;2023-03-25T14:57:12;4.35;;;1.40;;
6735;SDS011;3405;50.576;12.364;2023-03-25T14:59:40;3.45;;;1.45;;
6735;SDS011;3405;50.576;12.364;2023-03-25T15:02:15;2.83;;;1.13;;
6735;SDS011;3405;50.576;12.364;2023-03-25T15:04:41;4.22;;;1.55;;
6735;SDS011;3405;50.576;12.364;2023-03-25T15:07:10;3.35;;;1.30;;
6735;SDS011;3405;50.576;12.364;2023-03-25T15:09:50;6.68;;;1.50;;
6735;SDS011;3405;50.576;12.364;2023-03-25T15:12:17;4.20;;;1.20;;
6735;SDS011;3405;50.576;12.364;2023-03-25T15:14:44;4.72;;;1.15;;
6735;SDS011;3405;50.576;12.364;2023-03-25T15:17:37;3.65;;;1.10;;
6735;SDS011;3405;50.576;12.364;2023-03-25T15:22:33;4.97;;;1.10;;
6735;SDS011;3405;50.576;12.364;2023-03-25T15:24:59;2.28;;;1.10;;
6735;SDS011;3405;50.576;12.364;2023-03-25T15:27:28;3.10;;;1.08;;
6735;SDS011;3405;50.576;12.364;2023-03-25T15:30:16;3.83;;;1.20;;
6735;SDS011;3405;50.576;12.364;2023-03-25T15:33:07;3.15;;;0.85;;
6735;SDS011;3405;50.576;12.364;2023-03-25T15:35:48;3.90;;;1.20;;
6735;SDS011;3405;50.576;12.364;2023-03-25T15:41:00;3.40;;;1.10;;
6735;SDS011;3405;50.576;12.364;2023-03-25T15:46:07;2.25;;;1.15;;
6735;SDS011;3405;50.576;12.364;2023-03-25T15:51:26;3.60;;;0.98;;
6735;SDS011;3405;50.576;12.364;2023-03-25T15:56:41;1.55;;;0.82;;
6735;SDS011;3405;50.576;12.364;2023-03-25T15:59:16;0.98;;;0.80;;
6735;SDS011;3405;50.576;12.364;2023-03-25T16:01:48;1.35;;;0.70;;
6735;SDS011;3405;50.576;12.364;2023-03-25T16:06:42;1.70;;;0.85;;
6735;SDS011;3405;50.576;12.364;2023-03-25T16:09:13;2.67;;;1.15;;
6735;SDS011;3405;50.576;12.364;2023-03-25T16:11:41;2.03;;;0.85;;
6735;SDS011;3405;50.576;12.364;2023-03-25T16:14:11;1.33;;;1.02;;
6735;SDS011;3405;50.576;12.364;2023-03-25T16:16:40;1.63;;;0.80;;
6735;SDS011;3405;50.576;12.364;2023-03-25T16:19:14;2.10;;;0.80;;
6735;SDS011;3405;50.576;12.364;2023-03-25T16:21:41;0.60;;;0.60;;
6735;SDS011;3405;50.576;12.364;2023-03-25T16:24:08;3.30;;;1.00;;
6735;SDS011;3405;50.576;12.364;2023-03-25T16:26:40;1.60;;;0.50;;
6735;SDS011;3405;50.576;12.364;2023-03-25T16:29:07;1.23;;;0.70;;
6735;SDS011;3405;50.576;12.364;2023-03-25T16:31:33;2.25;;;0.70;;
6735;SDS011;3405;50.576;12.364;2023-03-25T16:34:08;1.13;;;0.70;;
6735;SDS011;3405;50.576;12.364;2023-03-25T16:36:37;4.03;;;0.93;;
6735;SDS011;3405;50.576;12.364;2023-03-25T16:39:03;1.50;;;0.70;;
6735;SDS011;3405;50.576;12.364;2023-03-25T16:41:30;1.38;;;0.65;;
6735;SDS011;3405;50.576;12.364;2023-03-25T16:43:56;2.40;;;0.60;;
6735;SDS011;3405;50.576;12.364;2023-03-25T16:46:22;0.63;;;0.50;;
6735;SDS011;3405;50.576;12.364;2023-03-25T16:48:51;0.70;;;0.57;;
6735;SDS011;3405;50.576;12.364;2023-03-25T16:51:21;0.95;;;0.82;;
6735;SDS011;3405;50.576;12.364;2023-03-25T16:53:48;0.88;;;0.68;;
6735;SDS011;3405;50.576;12.364;2023-03-25T16:58:52;0.60;;;0.40;;
6735;SDS011;3405;50.576;12.364;2023-03-25T17:01:19;1.08;;;0.75;;
6735;SDS011;3405;50.576;12.364;2023-03-25T17:03:47;1.17;;;0.80;;